Time;durP1;ratioP1;P1;durP2;ratioP2;P2;SDS_P1;SDS_P2;PMS_P1;PMS_P2;Temp;Humidity;BMP_temperature;BMP_pressure;BME280_temperature;BME280_humidity;BME280_pressure;Samples;Min_cycle;Max_cycle;Signal;HPM_P1;HPM_P2
2022/11/16 00:02:36;;;;;;;29.13;18.93;;;;;;;;;;5004784;28;20216;-81
2022/11/16 00:05:40;;;;;;;32.90;20.30;;;;;;;;;;5018156;28;20625;-81
2022/11/16 00:09:20;;;;;;;34.47;20.07;;;;;;;;;;5029161;28;20189;-81
2022/11/16 00:12:12;;;;;;;33.43;20.17;;;;;;;;;;5006686;28;20221;-81
2022/11/16 00:15:16;;;;;;;32.90;21.30;;;;;;;;;;5017538;28;20667;-81
2022/11/16 00:18:20;;;;;;;33.47;22.17;;;;;;;;;;5006762;28;20185;-80
2022/11/16 00:21:26;;;;;;;30.83;21.27;;;;;;;;;;5017531;28;20220;-81
2022/11/16 00:24:30;;;;;;;35.77;21.43;;;;;;;;;;5017613;28;20190;-81
2022/11/16 00:27:34;;;;;;;33.27;21.13;;;;;;;;;;5029048;28;20205;-80
2022/11/16 00:30:39;;;;;;;36.50;21.60;;;;;;;;;;5006186;28;20561;-81
2022/11/16 00:33:43;;;;;;;38.67;23.43;;;;;;;;;;5019004;28;20204;-81
2022/11/16 00:36:48;;;;;;;39.63;23.20;;;;;;;;;;5040586;28;20682;-80
2022/11/16 00:39:52;;;;;;;40.00;23.13;;;;;;;;;;5028845;28;20505;-82
2022/11/16 00:42:56;;;;;;;39.13;23.87;;;;;;;;;;5030447;28;20200;-82
2022/11/16 00:46:01;;;;;;;38.17;22.73;;;;;;;;;;5030140;28;20180;-82
2022/11/16 00:49:06;;;;;;;35.03;21.43;;;;;;;;;;5018398;28;20177;-81
2022/11/16 00:52:10;;;;;;;32.27;20.63;;;;;;;;;;5040806;28;20208;-81
2022/11/16 00:55:15;;;;;;;34.50;21.83;;;;;;;;;;5039522;28;20224;-81
2022/11/16 00:58:19;;;;;;;33.13;20.43;;;;;;;;;;5017106;28;20200;-81
2022/11/16 01:01:27;;;;;;;31.40;20.03;;;;;;;;;;5039515;28;20695;-81
2022/11/16 01:04:32;;;;;;;30.50;20.50;;;;;;;;;;5040752;28;20173;-81
2022/11/16 01:07:38;;;;;;;29.50;19.10;;;;;;;;;;5028816;28;20185;-81
2022/11/16 01:10:42;;;;;;;28.67;19.57;;;;;;;;;;5028645;28;20216;-81
2022/11/16 01:13:48;;;;;;;30.73;20.40;;;;;;;;;;5027639;28;20181;-81
2022/11/16 01:16:52;;;;;;;31.13;20.47;;;;;;;;;;5028210;28;20526;-82
2022/11/16 01:19:57;;;;;;;32.20;20.30;;;;;;;;;;5029136;28;20173;-81
2022/11/16 01:23:01;;;;;;;29.27;19.20;;;;;;;;;;5016831;28;20197;-81
2022/11/16 01:26:05;;;;;;;28.80;18.80;;;;;;;;;;5039474;28;20192;-81
2022/11/16 01:29:13;;;;;;;29.30;18.33;;;;;;;;;;5019346;28;20201;-81
2022/11/16 01:32:21;;;;;;;26.90;18.03;;;;;;;;;;5017960;28;20225;-81
2022/11/16 01:35:26;;;;;;;27.87;17.57;;;;;;;;;;5019910;28;20664;-81
2022/11/16 01:38:30;;;;;;;28.97;17.93;;;;;;;;;;5008281;28;20196;-80
2022/11/16 01:41:36;;;;;;;31.43;18.40;;;;;;;;;;5030980;28;20228;-81
2022/11/16 01:44:42;;;;;;;24.77;16.43;;;;;;;;;;5074867;23;20231;-79
2022/11/16 01:47:53;;;;;;;24.40;15.37;;;;;;;;;;5058213;28;20179;-80
2022/11/16 01:51:01;;;;;;;23.77;16.30;;;;;;;;;;5046093;28;20559;-79
2022/11/16 01:54:11;;;;;;;23.80;16.10;;;;;;;;;;5080579;28;20515;-80
2022/11/16 01:57:31;;;;;;;24.53;16.07;;;;;;;;;;5057117;28;20172;-79
2022/11/16 02:00:42;;;;;;;24.03;16.10;;;;;;;;;;5057715;28;20695;-79
2022/11/16 02:04:05;;;;;;;22.93;15.63;;;;;;;;;;5060965;28;20188;-79
2022/11/16 02:07:26;;;;;;;24.23;16.77;;;;;;;;;;5062986;28;20200;-81
2022/11/16 02:10:37;;;;;;;25.87;16.93;;;;;;;;;;5026643;28;20188;-80
2022/11/16 02:14:20;;;;;;;21.87;14.80;;;;;;;;;;5038285;28;20184;-80
2022/11/16 02:17:43;;;;;;;21.07;14.47;;;;;;;;;;5025923;28;20176;-80
2022/11/16 02:21:10;;;;;;;25.07;16.03;;;;;;;;;;5048678;28;20224;-80
2022/11/16 02:24:26;;;;;;;24.03;15.80;;;;;;;;;;5025573;28;20180;-80
2022/11/16 02:27:49;;;;;;;24.63;15.93;;;;;;;;;;5059278;28;20512;-79
2022/11/16 02:30:56;;;;;;;22.27;15.40;;;;;;;;;;5024898;28;20223;-80
2022/11/16 02:34:02;;;;;;;20.90;15.27;;;;;;;;;;5059680;28;20180;-80
2022/11/16 02:37:09;;;;;;;22.70;16.07;;;;;;;;;;5066492;28;20195;-80
2022/11/16 02:40:15;;;;;;;21.97;15.20;;;;;;;;;;5046874;28;20674;-81
2022/11/16 02:43:29;;;;;;;21.37;15.17;;;;;;;;;;5047554;28;20196;-80
2022/11/16 02:46:43;;;;;;;21.83;15.70;;;;;;;;;;5035399;28;20514;-81
2022/11/16 02:49:54;;;;;;;21.17;14.50;;;;;;;;;;5047664;28;20524;-81
2022/11/16 02:52:58;;;;;;;21.07;14.43;;;;;;;;;;5025178;28;20192;-80
2022/11/16 02:56:05;;;;;;;22.20;15.20;;;;;;;;;;5036798;28;20212;-80
2022/11/16 02:59:09;;;;;;;22.63;14.73;;;;;;;;;;5047080;28;20199;-81
2022/11/16 03:02:33;;;;;;;19.97;14.57;;;;;;;;;;5035126;28;20212;-80
2022/11/16 03:05:45;;;;;;;20.20;13.73;;;;;;;;;;5036357;28;20180;-81
2022/11/16 03:09:23;;;;;;;17.40;12.87;;;;;;;;;;5059143;28;20539;-80
2022/11/16 03:12:30;;;;;;;18.17;12.50;;;;;;;;;;5039536;28;20224;-81
2022/11/16 03:15:38;;;;;;;21.77;13.73;;;;;;;;;;5036750;28;20215;-80
2022/11/16 03:18:44;;;;;;;19.17;14.00;;;;;;;;;;5059911;28;20207;-80
2022/11/16 03:21:56;;;;;;;19.20;14.23;;;;;;;;;;5047864;28;20685;-80
2022/11/16 03:25:02;;;;;;;19.57;13.63;;;;;;;;;;5036066;28;20180;-82
2022/11/16 03:28:32;;;;;;;19.10;13.90;;;;;;;;;;5035208;28;20180;-80
2022/11/16 03:31:47;;;;;;;20.90;14.83;;;;;;;;;;5046736;28;20215;-81
2022/11/16 03:35:03;;;;;;;22.43;14.83;;;;;;;;;;5035498;28;20185;-79
2022/11/16 03:38:10;;;;;;;23.83;15.03;;;;;;;;;;5038121;28;20184;-81
2022/11/16 03:41:22;;;;;;;21.60;14.67;;;;;;;;;;5040109;28;20211;-81
2022/11/16 03:44:26;;;;;;;25.63;16.50;;;;;;;;;;5063287;28;20199;-82
2022/11/16 03:47:31;;;;;;;23.73;16.30;;;;;;;;;;5028564;28;20180;-82
2022/11/16 03:50:35;;;;;;;23.77;15.93;;;;;;;;;;5039643;28;20176;-80
2022/11/16 03:53:40;;;;;;;23.77;15.97;;;;;;;;;;5039479;28;20180;-83
2022/11/16 03:56:46;;;;;;;22.67;15.03;;;;;;;;;;5040982;28;20208;-82
2022/11/16 03:59:51;;;;;;;24.47;16.00;;;;;;;;;;5049164;28;20188;-81
2022/11/16 04:02:55;;;;;;;24.20;15.63;;;;;;;;;;5049412;28;20180;-80
2022/11/16 04:29:58;;;;;;;19.07;13.00;;;;;;;;;;5058898;28;20196;-81
2022/11/16 04:39:50;;;;;;;21.67;14.50;;;;;;;;;;5063985;28;20184;-81
2022/11/16 04:43:00;;;;;;;20.33;14.07;;;;;;;;;;5063056;28;20203;-82
2022/11/16 04:49:32;;;;;;;20.93;13.73;;;;;;;;;;5073948;28;20515;-81
2022/11/16 04:52:37;;;;;;;17.57;12.90;;;;;;;;;;5061791;28;20215;-82
2022/11/16 04:55:43;;;;;;;17.90;13.37;;;;;;;;;;5061870;28;20203;-82
2022/11/16 04:58:47;;;;;;;19.23;14.27;;;;;;;;;;5073300;28;20175;-82
2022/11/16 05:02:08;;;;;;;19.73;14.03;;;;;;;;;;5062826;28;20207;-81
2022/11/16 05:05:18;;;;;;;18.67;13.90;;;;;;;;;;5071255;28;20204;-82
2022/11/16 05:08:24;;;;;;;18.20;13.20;;;;;;;;;;5061074;28;20203;-82
2022/11/16 05:11:30;;;;;;;19.27;13.67;;;;;;;;;;5060131;28;20211;-83
2022/11/16 05:14:36;;;;;;;21.27;13.57;;;;;;;;;;5053422;28;20191;-83
2022/11/16 05:17:41;;;;;;;18.47;13.40;;;;;;;;;;5060968;28;20195;-82
2022/11/16 05:21:00;;;;;;;17.33;13.20;;;;;;;;;;5060767;28;20219;-81
2022/11/16 05:27:31;;;;;;;18.23;13.33;;;;;;;;;;5082354;28;20196;-80
2022/11/16 05:30:35;;;;;;;18.47;13.17;;;;;;;;;;5039396;28;20200;-80
2022/11/16 05:33:42;;;;;;;19.13;13.90;;;;;;;;;;5039629;28;20180;-79
2022/11/16 05:36:48;;;;;;;19.17;14.23;;;;;;;;;;5051202;28;20204;-80
2022/11/16 05:39:55;;;;;;;19.03;13.47;;;;;;;;;;5029527;28;20184;-79
2022/11/16 05:43:04;;;;;;;18.87;13.63;;;;;;;;;;5070421;28;20203;-79
2022/11/16 05:46:14;;;;;;;19.87;13.70;;;;;;;;;;5061645;28;20176;-80
2022/11/16 05:49:18;;;;;;;18.20;13.53;;;;;;;;;;5060423;28;20175;-80
2022/11/16 05:52:23;;;;;;;18.50;13.67;;;;;;;;;;5071852;28;20211;-79
2022/11/16 05:55:29;;;;;;;18.77;14.63;;;;;;;;;;5061381;28;20527;-80
2022/11/16 05:58:35;;;;;;;18.13;13.63;;;;;;;;;;5060469;28;20203;-79
2022/11/16 06:01:40;;;;;;;20.03;14.30;;;;;;;;;;5059296;28;20215;-78
2022/11/16 06:04:45;;;;;;;20.17;14.53;;;;;;;;;;5071061;28;20507;-78
2022/11/16 06:07:50;;;;;;;21.00;14.70;;;;;;;;;;5058731;28;20176;-78
2022/11/16 06:10:54;;;;;;;21.07;14.27;;;;;;;;;;5082209;28;20215;-79
2022/11/16 06:14:00;;;;;;;21.60;13.97;;;;;;;;;;5058580;28;20200;-80
2022/11/16 06:17:04;;;;;;;20.00;14.13;;;;;;;;;;5072078;28;20210;-78
2022/11/16 06:20:10;;;;;;;19.00;14.17;;;;;;;;;;5070697;28;20184;-79
2022/11/16 06:23:15;;;;;;;20.20;13.67;;;;;;;;;;5071219;28;20179;-78
2022/11/16 06:26:20;;;;;;;20.80;13.93;;;;;;;;;;5081361;28;20167;-78
2022/11/16 06:29:25;;;;;;;20.00;14.13;;;;;;;;;;5069312;28;20179;-78
2022/11/16 06:32:31;;;;;;;21.37;14.00;;;;;;;;;;5062935;28;20211;-80
2022/11/16 06:35:36;;;;;;;19.67;13.60;;;;;;;;;;5049539;28;20207;-79
2022/11/16 06:38:41;;;;;;;20.37;13.83;;;;;;;;;;5051446;28;20187;-78
2022/11/16 06:41:47;;;;;;;22.50;14.00;;;;;;;;;;5050785;28;20207;-79
2022/11/16 06:44:51;;;;;;;19.43;14.10;;;;;;;;;;5060687;28;20203;-79
2022/11/16 06:47:59;;;;;;;19.30;14.23;;;;;;;;;;5061404;28;20172;-79
2022/11/16 06:51:04;;;;;;;22.00;15.27;;;;;;;;;;5060598;28;20208;-80
2022/11/16 06:54:09;;;;;;;23.00;13.33;;;;;;;;;;5050541;28;20183;-78
2022/11/16 06:57:13;;;;;;;19.77;14.17;;;;;;;;;;5064318;28;20203;-80
2022/11/16 07:00:18;;;;;;;20.40;13.57;;;;;;;;;;5075869;28;20519;-79
2022/11/16 07:03:24;;;;;;;18.33;12.63;;;;;;;;;;5064020;28;20179;-78
2022/11/16 07:06:29;;;;;;;22.03;14.23;;;;;;;;;;5049401;28;20171;-79
2022/11/16 07:09:35;;;;;;;19.30;13.47;;;;;;;;;;5049292;28;20546;-79
2022/11/16 07:12:39;;;;;;;19.57;13.93;;;;;;;;;;5059091;28;20207;-80
2022/11/16 07:15:45;;;;;;;19.80;14.20;;;;;;;;;;5048773;28;20175;-79
2022/11/16 07:18:51;;;;;;;20.20;14.30;;;;;;;;;;5046768;28;20172;-78
2022/11/16 07:21:55;;;;;;;17.97;12.97;;;;;;;;;;5058898;28;20211;-80
2022/11/16 07:25:00;;;;;;;19.63;12.47;;;;;;;;;;5058527;28;20183;-80
2022/11/16 07:28:05;;;;;;;18.67;12.57;;;;;;;;;;5058364;28;20531;-79
2022/11/16 07:31:12;;;;;;;22.63;12.27;;;;;;;;;;5046501;28;20210;-80
2022/11/16 07:34:17;;;;;;;16.67;12.10;;;;;;;;;;5057697;28;20520;-79
2022/11/16 07:37:26;;;;;;;18.80;12.13;;;;;;;;;;5045709;28;20199;-78
2022/11/16 07:40:30;;;;;;;15.83;11.83;;;;;;;;;;5069359;28;20187;-78
2022/11/16 07:43:36;;;;;;;15.50;11.27;;;;;;;;;;5046574;28;20207;-79
2022/11/16 07:46:47;;;;;;;15.40;11.10;;;;;;;;;;5057865;28;20180;-79
2022/11/16 07:49:52;;;;;;;15.47;11.37;;;;;;;;;;5058107;28;20199;-79
2022/11/16 07:52:59;;;;;;;15.27;11.20;;;;;;;;;;5045535;28;20525;-78
2022/11/16 07:56:04;;;;;;;15.63;11.47;;;;;;;;;;5045319;28;20511;-79
2022/11/16 07:59:11;;;;;;;15.53;11.97;;;;;;;;;;5047578;28;20180;-80
2022/11/16 08:02:19;;;;;;;18.07;12.07;;;;;;;;;;5057908;28;20219;-78
2022/11/16 08:05:27;;;;;;;16.70;11.07;;;;;;;;;;5045646;28;20483;-78
2022/11/16 08:08:32;;;;;;;16.03;11.67;;;;;;;;;;5044337;28;20168;-81
2022/11/16 08:11:37;;;;;;;15.47;11.67;;;;;;;;;;5055941;28;20215;-82
2022/11/16 08:14:42;;;;;;;14.50;11.27;;;;;;;;;;5047874;28;20176;-80
2022/11/16 08:17:47;;;;;;;14.77;11.17;;;;;;;;;;5056194;28;20203;-81
2022/11/16 08:20:51;;;;;;;15.30;11.07;;;;;;;;;;5058235;28;20223;-79
2022/11/16 08:23:56;;;;;;;15.87;11.27;;;;;;;;;;5062818;28;20180;-82
2022/11/16 08:27:00;;;;;;;14.63;11.20;;;;;;;;;;5062397;28;20171;-81
2022/11/16 08:30:08;;;;;;;15.63;11.20;;;;;;;;;;5051853;28;20175;-77
2022/11/16 08:33:13;;;;;;;16.80;11.30;;;;;;;;;;5063394;28;20665;-77
2022/11/16 08:36:18;;;;;;;15.40;10.30;;;;;;;;;;5051520;28;20284;-78
2022/11/16 08:39:23;;;;;;;14.90;11.23;;;;;;;;;;5073466;28;20184;-80
2022/11/16 08:42:28;;;;;;;14.80;10.70;;;;;;;;;;5050696;28;20211;-81
2022/11/16 08:45:33;;;;;;;17.67;11.50;;;;;;;;;;5060599;28;20183;-80
2022/11/16 08:48:37;;;;;;;15.57;10.57;;;;;;;;;;5050084;28;20184;-79
2022/11/16 08:51:41;;;;;;;15.90;11.57;;;;;;;;;;5061505;28;20210;-80
2022/11/16 08:54:46;;;;;;;14.10;10.83;;;;;;;;;;5049005;28;20522;-79
2022/11/16 08:57:51;;;;;;;16.63;11.37;;;;;;;;;;5072986;28;20203;-81
2022/11/16 09:00:57;;;;;;;15.43;10.40;;;;;;;;;;5061970;28;20686;-80
2022/11/16 09:04:01;;;;;;;15.17;10.83;;;;;;;;;;5060966;28;20180;-81
2022/11/16 09:07:05;;;;;;;20.37;11.30;;;;;;;;;;5061449;28;20176;-81
2022/11/16 09:10:09;;;;;;;16.27;11.80;;;;;;;;;;5061025;28;20175;-81
2022/11/16 09:13:14;;;;;;;14.07;11.30;;;;;;;;;;5049030;28;20171;-80
2022/11/16 09:16:19;;;;;;;15.40;10.67;;;;;;;;;;5061882;28;20200;-79
2022/11/16 09:19:24;;;;;;;13.40;9.50;;;;;;;;;;5071225;28;20175;-81
2022/11/16 09:22:28;;;;;;;14.23;11.03;;;;;;;;;;5081492;28;20219;-81
2022/11/16 09:25:32;;;;;;;14.60;10.67;;;;;;;;;;5093981;28;20172;-80
2022/11/16 09:28:37;;;;;;;14.97;11.70;;;;;;;;;;5093751;28;20172;-81
2022/11/16 09:31:41;;;;;;;17.00;11.93;;;;;;;;;;5058986;28;20219;-81
2022/11/16 09:34:46;;;;;;;14.40;11.30;;;;;;;;;;5059446;28;20216;-82
2022/11/16 09:37:50;;;;;;;14.47;10.63;;;;;;;;;;5068801;28;20200;-81
2022/11/16 09:40:55;;;;;;;14.00;11.10;;;;;;;;;;5051365;28;20249;-82
2022/11/16 09:44:40;;;;;;;15.10;11.20;;;;;;;;;;5062173;28;20199;-82
2022/11/16 09:47:53;;;;;;;14.07;10.67;;;;;;;;;;5051864;28;20180;-81
2022/11/16 09:51:01;;;;;;;14.97;10.70;;;;;;;;;;5051947;28;20669;-81
2022/11/16 09:54:10;;;;;;;13.93;10.63;;;;;;;;;;5087192;28;20209;-81
2022/11/16 09:57:20;;;;;;;18.77;11.17;;;;;;;;;;5062472;28;20204;-81
2022/11/16 10:00:26;;;;;;;15.37;10.50;;;;;;;;;;5072523;28;20183;-80
2022/11/16 10:03:39;;;;;;;13.40;10.53;;;;;;;;;;5060924;28;20179;-81
2022/11/16 10:06:51;;;;;;;12.73;10.60;;;;;;;;;;5072819;28;20183;-81
2022/11/16 10:09:56;;;;;;;14.33;10.97;;;;;;;;;;5048902;28;20180;-81
2022/11/16 10:13:12;;;;;;;12.87;10.53;;;;;;;;;;5054096;28;20176;-80
2022/11/16 10:16:54;;;;;;;12.40;9.63;;;;;;;;;;5053956;28;20191;-80
2022/11/16 10:20:27;;;;;;;17.77;12.43;;;;;;;;;;5053741;28;20179;-80
2022/11/16 10:23:52;;;;;;;14.47;11.17;;;;;;;;;;5055012;28;20183;-80
2022/11/16 10:26:58;;;;;;;14.40;11.27;;;;;;;;;;5056387;28;20179;-80
2022/11/16 10:30:12;;;;;;;16.73;13.00;;;;;;;;;;5056912;28;20180;-80
2022/11/16 10:33:20;;;;;;;13.97;11.83;;;;;;;;;;5072190;28;20180;-79
2022/11/16 10:36:29;;;;;;;14.87;11.13;;;;;;;;;;5056736;28;20179;-80
2022/11/16 10:39:35;;;;;;;15.20;11.80;;;;;;;;;;5068593;28;20180;-79
2022/11/16 10:42:39;;;;;;;14.33;11.63;;;;;;;;;;5057686;28;20211;-80
2022/11/16 10:46:11;;;;;;;14.00;10.63;;;;;;;;;;5054461;28;20214;-80
2022/11/16 10:49:51;;;;;;;16.27;13.17;;;;;;;;;;5053958;28;20176;-80
2022/11/16 10:52:55;;;;;;;15.37;11.40;;;;;;;;;;4995125;28;20257;-80
2022/11/16 10:56:14;;;;;;;14.50;11.23;;;;;;;;;;5054285;28;20187;-80
2022/11/16 10:59:18;;;;;;;13.37;11.40;;;;;;;;;;5065703;28;20203;-79
2022/11/16 11:02:35;;;;;;;16.50;12.33;;;;;;;;;;5053654;28;20223;-80
2022/11/16 11:05:51;;;;;;;14.60;10.77;;;;;;;;;;5054281;28;20535;-80
2022/11/16 11:09:13;;;;;;;16.10;11.30;;;;;;;;;;5052927;28;20176;-80
2022/11/16 11:12:37;;;;;;;13.97;11.13;;;;;;;;;;5053075;28;20211;-76
2022/11/16 11:15:42;;;;;;;14.47;11.80;;;;;;;;;;5060978;28;20646;-77
2022/11/16 11:18:46;;;;;;;16.00;12.57;;;;;;;;;;5060312;28;20199;-76
2022/11/16 11:21:58;;;;;;;15.83;12.10;;;;;;;;;;5061059;28;20219;-76
2022/11/16 11:25:02;;;;;;;15.17;12.43;;;;;;;;;;5060994;28;20179;-75
2022/11/16 11:28:19;;;;;;;18.20;13.07;;;;;;;;;;5061250;28;20171;-76
2022/11/16 11:31:33;;;;;;;16.63;13.23;;;;;;;;;;5073136;28;20559;-76
2022/11/16 11:34:42;;;;;;;16.47;12.47;;;;;;;;;;5060959;28;20187;-76
2022/11/16 11:37:51;;;;;;;18.27;13.07;;;;;;;;;;5061206;28;20215;-76
2022/11/16 11:40:57;;;;;;;16.83;12.90;;;;;;;;;;5073628;28;20563;-75
2022/11/16 11:44:05;;;;;;;15.90;12.63;;;;;;;;;;5073778;28;20206;-76
2022/11/16 11:47:40;;;;;;;16.00;12.40;;;;;;;;;;5061222;28;20172;-75
2022/11/16 11:50:51;;;;;;;14.67;11.93;;;;;;;;;;5060985;28;20211;-75
2022/11/16 11:54:01;;;;;;;13.30;11.47;;;;;;;;;;5061409;28;20176;-75
2022/11/16 11:57:11;;;;;;;14.83;11.50;;;;;;;;;;5073893;28;20179;-75
2022/11/16 12:00:16;;;;;;;12.37;10.50;;;;;;;;;;5065710;28;20176;-76
2022/11/16 12:03:48;;;;;;;17.03;13.33;;;;;;;;;;5053687;28;20176;-75
2022/11/16 12:07:10;;;;;;;15.40;13.37;;;;;;;;;;5065526;28;20175;-75
2022/11/16 12:10:27;;;;;;;17.83;14.20;;;;;;;;;;5077294;28;20187;-75
2022/11/16 12:14:02;;;;;;;18.23;15.07;;;;;;;;;;5076379;28;20190;-75
2022/11/16 12:17:55;;;;;;;16.70;14.03;;;;;;;;;;5076261;28;20191;-75
2022/11/16 12:21:05;;;;;;;16.33;13.57;;;;;;;;;;5076658;28;20226;-76
2022/11/16 12:24:39;;;;;;;16.33;12.43;;;;;;;;;;5067488;28;20186;-79
2022/11/16 12:27:59;;;;;;;14.93;12.17;;;;;;;;;;5057157;28;20179;-78
2022/11/16 12:31:33;;;;;;;15.60;13.17;;;;;;;;;;5055611;28;20222;-79
2022/11/16 12:35:11;;;;;;;17.97;12.23;;;;;;;;;;5044588;28;20191;-78
2022/11/16 12:38:24;;;;;;;15.83;11.73;;;;;;;;;;5054729;28;20662;-77
2022/11/16 12:42:02;;;;;;;14.00;11.47;;;;;;;;;;5044236;28;20222;-78
2022/11/16 12:45:18;;;;;;;16.80;12.40;;;;;;;;;;5067151;28;20222;-78
2022/11/16 12:48:33;;;;;;;15.27;11.17;;;;;;;;;;5065320;28;20183;-78
2022/11/16 12:51:52;;;;;;;15.97;11.70;;;;;;;;;;5055619;28;20574;-79
2022/11/16 12:55:05;;;;;;;14.03;11.50;;;;;;;;;;5056948;28;20187;-79
2022/11/16 12:58:24;;;;;;;15.13;12.40;;;;;;;;;;5055554;28;20566;-79
2022/11/16 13:01:38;;;;;;;14.67;10.63;;;;;;;;;;5067041;28;20226;-79
2022/11/16 13:04:49;;;;;;;16.07;11.83;;;;;;;;;;5067474;28;20650;-78
2022/11/16 13:08:04;;;;;;;13.87;12.13;;;;;;;;;;5063307;28;20194;-77
2022/11/16 13:11:16;;;;;;;13.13;11.23;;;;;;;;;;5051595;28;20218;-77
2022/11/16 13:14:37;;;;;;;14.97;12.03;;;;;;;;;;5052154;28;20546;-78
2022/11/16 13:17:46;;;;;;;13.00;11.33;;;;;;;;;;5077609;28;20191;-78
2022/11/16 13:20:55;;;;;;;14.07;11.23;;;;;;;;;;5061965;28;20728;-77
2022/11/16 13:24:31;;;;;;;14.07;12.10;;;;;;;;;;5052321;28;20226;-78
2022/11/16 13:28:14;;;;;;;13.63;11.43;;;;;;;;;;5063466;28;20194;-78
2022/11/16 13:31:34;;;;;;;16.97;11.83;;;;;;;;;;5063105;28;20234;-78
2022/11/16 13:34:39;;;;;;;13.73;11.27;;;;;;;;;;5062338;28;20202;-77
2022/11/16 13:37:45;;;;;;;15.70;11.73;;;;;;;;;;5062444;28;20214;-77
2022/11/16 13:40:49;;;;;;;11.80;10.17;;;;;;;;;;5074640;28;20226;-77
2022/11/16 13:43:53;;;;;;;11.77;10.13;;;;;;;;;;5050817;28;20210;-78
2022/11/16 13:47:04;;;;;;;16.53;10.13;;;;;;;;;;5066888;28;20190;-78
2022/11/16 13:50:17;;;;;;;11.93;9.30;;;;;;;;;;5050597;28;20207;-77
2022/11/16 13:53:30;;;;;;;12.53;8.87;;;;;;;;;;5074246;28;20657;-77
2022/11/16 13:56:50;;;;;;;9.83;7.83;;;;;;;;;;5061978;28;20287;-77
2022/11/16 14:00:09;;;;;;;10.93;7.57;;;;;;;;;;5074646;28;20215;-77
2022/11/16 14:03:16;;;;;;;7.40;6.60;;;;;;;;;;5062134;28;20176;-77
2022/11/16 14:06:23;;;;;;;11.23;7.30;;;;;;;;;;5038128;23;20552;-81
2022/11/16 14:09:45;;;;;;;9.30;6.70;;;;;;;;;;5012078;28;20177;-80
2022/11/16 14:12:52;;;;;;;8.63;6.77;;;;;;;;;;5006406;28;20182;-80
2022/11/16 14:16:21;;;;;;;7.37;6.50;;;;;;;;;;4994782;28;20182;-80
2022/11/16 14:19:46;;;;;;;9.90;6.93;;;;;;;;;;5006204;28;20202;-79
2022/11/16 14:23:05;;;;;;;7.93;5.93;;;;;;;;;;4995904;28;20190;-79
2022/11/16 14:26:25;;;;;;;9.13;5.93;;;;;;;;;;4995147;28;20181;-79
2022/11/16 14:29:33;;;;;;;7.90;6.17;;;;;;;;;;4999211;28;20197;-79
2022/11/16 14:32:46;;;;;;;7.40;6.70;;;;;;;;;;4987918;28;20229;-79
2022/11/16 14:35:52;;;;;;;13.00;7.93;;;;;;;;;;5006825;28;20193;-80
2022/11/16 14:39:16;;;;;;;9.63;6.43;;;;;;;;;;4987458;28;20221;-81
2022/11/16 14:42:24;;;;;;;8.37;6.37;;;;;;;;;;4996243;28;20708;-80
2022/11/16 14:45:33;;;;;;;7.80;5.90;;;;;;;;;;5007730;28;20182;-80
2022/11/16 14:48:45;;;;;;;7.53;6.20;;;;;;;;;;5008374;28;20632;-80
2022/11/16 14:51:54;;;;;;;6.10;5.23;;;;;;;;;;5018690;28;20217;-80
2022/11/16 14:55:02;;;;;;;7.03;5.20;;;;;;;;;;4995991;28;20201;-80
2022/11/16 14:58:21;;;;;;;8.10;5.63;;;;;;;;;;4996797;28;20189;-80
2022/11/16 15:01:43;;;;;;;6.53;5.30;;;;;;;;;;5019724;28;20221;-80
2022/11/16 15:04:48;;;;;;;5.80;5.03;;;;;;;;;;5007284;28;20185;-80
2022/11/16 15:07:56;;;;;;;9.67;5.60;;;;;;;;;;4996486;28;20186;-80
2022/11/16 15:11:01;;;;;;;6.50;5.20;;;;;;;;;;4995739;28;20209;-79
2022/11/16 15:14:08;;;;;;;7.77;5.77;;;;;;;;;;5007206;28;20209;-81
2022/11/16 15:17:32;;;;;;;10.27;6.50;;;;;;;;;;5004843;28;20197;-81
2022/11/16 15:20:45;;;;;;;8.33;6.87;;;;;;;;;;4994453;28;20209;-80
2022/11/16 15:23:49;;;;;;;8.50;6.33;;;;;;;;;;5018886;28;20197;-80
2022/11/16 15:27:00;;;;;;;7.73;5.93;;;;;;;;;;4994490;28;20556;-81
2022/11/16 15:30:36;;;;;;;7.43;5.43;;;;;;;;;;4997204;28;20182;-82
2022/11/16 15:33:44;;;;;;;8.03;6.77;;;;;;;;;;4999439;28;20186;-80
2022/11/16 15:36:49;;;;;;;19.80;6.43;;;;;;;;;;4989747;28;20209;-82
2022/11/16 15:39:55;;;;;;;140.57;10.47;;;;;;;;;;5010061;28;20719;-81
2022/11/16 15:43:02;;;;;;;245.17;15.07;;;;;;;;;;4997918;28;20564;-81
2022/11/16 15:46:07;;;;;;;8.40;6.50;;;;;;;;;;4997594;28;20197;-81
2022/11/16 15:49:24;;;;;;;7.67;5.60;;;;;;;;;;4998758;28;20181;-81
2022/11/16 15:52:46;;;;;;;6.40;4.70;;;;;;;;;;5010072;28;20221;-82
2022/11/16 15:55:50;;;;;;;8.47;6.57;;;;;;;;;;5021056;28;20198;-81
2022/11/16 15:59:08;;;;;;;25.40;6.80;;;;;;;;;;4995499;28;20209;-81
2022/11/16 16:02:19;;;;;;;16.33;6.30;;;;;;;;;;5005653;28;20214;-81
2022/11/16 16:05:53;;;;;;;6.80;5.60;;;;;;;;;;4996751;28;20198;-82
2022/11/16 16:09:04;;;;;;;6.57;5.60;;;;;;;;;;5020368;28;20186;-81
2022/11/16 16:12:22;;;;;;;8.37;6.17;;;;;;;;;;4997621;28;20209;-82
2022/11/16 16:15:39;;;;;;;22.83;6.23;;;;;;;;;;4997308;28;20186;-82
2022/11/16 16:18:44;;;;;;;7.47;5.27;;;;;;;;;;4989087;28;20182;-82
2022/11/16 16:21:49;;;;;;;4.83;4.40;;;;;;;;;;4977323;28;20233;-82
2022/11/16 16:24:53;;;;;;;9.70;5.83;;;;;;;;;;4978096;28;20186;-81
2022/11/16 16:27:58;;;;;;;11.37;8.07;;;;;;;;;;4978159;28;20178;-81
2022/11/16 16:31:02;;;;;;;10.70;7.17;;;;;;;;;;4988177;28;20221;-81
2022/11/16 16:34:10;;;;;;;8.50;6.00;;;;;;;;;;4988089;28;20186;-80
2022/11/16 16:37:15;;;;;;;7.93;5.93;;;;;;;;;;5004691;28;20206;-82
2022/11/16 16:40:22;;;;;;;9.33;7.00;;;;;;;;;;4995506;28;20206;-82
2022/11/16 16:43:26;;;;;;;6.37;5.63;;;;;;;;;;4984448;28;20186;-81
2022/11/16 16:46:30;;;;;;;5.47;4.87;;;;;;;;;;4995600;28;20201;-82
2022/11/16 16:49:34;;;;;;;6.70;5.20;;;;;;;;;;4996114;28;20193;-80
2022/11/16 16:52:38;;;;;;;7.67;6.37;;;;;;;;;;4983191;28;20221;-78
2022/11/16 16:55:44;;;;;;;9.80;6.30;;;;;;;;;;5004737;28;20197;-79
2022/11/16 16:58:49;;;;;;;9.93;7.10;;;;;;;;;;4994987;28;20205;-79
2022/11/16 17:01:53;;;;;;;7.70;6.57;;;;;;;;;;4992078;28;20213;-80
2022/11/16 17:04:57;;;;;;;12.60;7.13;;;;;;;;;;4984150;28;20209;-80
2022/11/16 17:08:02;;;;;;;9.47;7.07;;;;;;;;;;4993915;28;20182;-79
2022/11/16 17:11:06;;;;;;;17.17;9.40;;;;;;;;;;4994645;28;20213;-80
2022/11/16 17:14:10;;;;;;;11.43;8.83;;;;;;;;;;4982729;28;20193;-80
2022/11/16 17:17:14;;;;;;;11.73;8.53;;;;;;;;;;5005702;28;20644;-80
2022/11/16 17:20:19;;;;;;;16.20;8.63;;;;;;;;;;4988879;28;20209;-79
2022/11/16 17:23:23;;;;;;;20.60;12.13;;;;;;;;;;4994312;28;20186;-79
2022/11/16 17:26:28;;;;;;;17.53;13.20;;;;;;;;;;4991338;28;20181;-81
2022/11/16 17:29:32;;;;;;;18.20;13.13;;;;;;;;;;4991667;28;20186;-80
2022/11/16 17:32:36;;;;;;;17.57;12.67;;;;;;;;;;5004211;28;20221;-77
2022/11/16 17:35:40;;;;;;;21.37;12.03;;;;;;;;;;5001679;28;20197;-77
2022/11/16 17:38:45;;;;;;;27.10;11.23;;;;;;;;;;5004154;28;20201;-78
2022/11/16 17:41:50;;;;;;;31.03;10.13;;;;;;;;;;5015155;28;20217;-78
2022/11/16 17:44:54;;;;;;;67.60;10.60;;;;;;;;;;4993652;28;20182;-78
2022/11/16 17:47:58;;;;;;;14.97;8.77;;;;;;;;;;4991005;28;20192;-77
2022/11/16 17:51:03;;;;;;;13.10;9.00;;;;;;;;;;4992458;28;20209;-78
2022/11/16 17:54:07;;;;;;;14.23;10.20;;;;;;;;;;4992761;28;20592;-77
2022/11/16 17:57:11;;;;;;;56.03;16.90;;;;;;;;;;4995712;28;20206;-78
2022/11/16 18:00:16;;;;;;;30.57;16.47;;;;;;;;;;4963149;28;20553;-77
2022/11/16 18:03:22;;;;;;;25.67;12.23;;;;;;;;;;4997622;28;20182;-78
2022/11/16 18:06:27;;;;;;;15.97;10.20;;;;;;;;;;4985680;28;20210;-78
2022/11/16 18:09:31;;;;;;;8.33;7.17;;;;;;;;;;4997622;28;20182;-78
2022/11/16 18:12:37;;;;;;;11.40;8.07;;;;;;;;;;4979651;28;20218;-80
2022/11/16 18:15:41;;;;;;;9.73;7.93;;;;;;;;;;4992873;28;20197;-81
2022/11/16 18:18:46;;;;;;;25.30;13.80;;;;;;;;;;4997109;28;20205;-81
2022/11/16 18:21:51;;;;;;;28.93;13.20;;;;;;;;;;4997181;28;20217;-81
2022/11/16 18:24:55;;;;;;;25.97;9.27;;;;;;;;;;4987231;28;20198;-81
2022/11/16 18:27:59;;;;;;;8.30;6.67;;;;;;;;;;4976282;28;20178;-80
2022/11/16 18:31:05;;;;;;;15.97;6.77;;;;;;;;;;4987229;28;20213;-81
2022/11/16 18:34:14;;;;;;;35.73;6.37;;;;;;;;;;4973697;28;20182;-82
2022/11/16 18:37:18;;;;;;;7.63;5.80;;;;;;;;;;5003628;28;20201;-80
2022/11/16 18:40:22;;;;;;;20.60;6.63;;;;;;;;;;4992795;28;20213;-79
2022/11/16 18:43:27;;;;;;;7.00;6.30;;;;;;;;;;5003106;28;20190;-79
2022/11/16 18:46:31;;;;;;;27.60;7.07;;;;;;;;;;4988314;28;20205;-80
2022/11/16 18:49:36;;;;;;;27.50;6.83;;;;;;;;;;4993910;28;20182;-81
2022/11/16 18:52:43;;;;;;;12.30;5.77;;;;;;;;;;4994393;28;20221;-80
2022/11/16 18:55:51;;;;;;;16.70;6.73;;;;;;;;;;4993571;28;20197;-80
2022/11/16 18:58:55;;;;;;;6.03;5.43;;;;;;;;;;5016388;28;20652;-81
2022/11/16 19:01:59;;;;;;;18.03;5.67;;;;;;;;;;5001341;28;20221;-80
2022/11/16 19:05:04;;;;;;;8.30;7.00;;;;;;;;;;4991590;28;20553;-80
2022/11/16 19:08:08;;;;;;;9.43;7.57;;;;;;;;;;4991206;28;20181;-80